Time;durP1;ratioP1;P1;durP2;ratioP2;P2;SDS_P1;SDS_P2;PMS_P1;PMS_P2;Temp;Humidity;BMP_temperature;BMP_pressure;BME280_temperature;BME280_humidity;BME280_pressure;Samples;Min_cycle;Max_cycle;Signal;HPM_P1;HPM_P2
2021/07/26 00:00:32;;;;;;;10.57;8.90;;;14.90;1.40;;;16.57;100.00;95034.94;646261;216;32270;-75
2021/07/26 00:05:54;;;;;;;13.70;9.20;;;14.90;1.40;;;16.55;100.00;95032.97;646834;216;42167;-74
2021/07/26 00:08:36;;;;;;;9.95;8.93;;;14.80;1.40;;;16.41;100.00;95030.41;645900;216;31756;-74
2021/07/26 00:11:18;;;;;;;13.10;9.18;;;14.70;1.40;;;16.32;100.00;95034.83;645938;216;31741;-74
2021/07/26 00:14:02;;;;;;;12.35;9.13;;;14.70;1.40;;;16.32;100.00;95033.88;645507;216;31556;-74
2021/07/26 00:16:44;;;;;;;12.35;10.88;;;14.80;1.40;;;16.41;100.00;95032.29;646626;216;31563;-74
2021/07/26 00:19:26;;;;;;;11.60;10.40;;;15.00;1.40;;;16.48;100.00;95029.27;647186;216;31575;-73
2021/07/26 00:22:08;;;;;;;12.02;10.38;;;15.10;1.40;;;16.52;100.00;95036.02;646317;216;31581;-74
2021/07/26 00:24:49;;;;;;;11.57;10.20;;;15.20;1.40;;;16.62;100.00;95038.44;646355;216;32162;-75
2021/07/26 00:27:31;;;;;;;12.10;10.35;;;15.20;1.40;;;16.64;100.00;95043.05;645557;212;34226;-73
2021/07/26 00:30:13;;;;;;;11.93;10.32;;;15.30;1.40;;;16.68;100.00;95043.16;647441;212;31643;-74
2021/07/26 00:32:54;;;;;;;13.80;10.10;;;15.30;1.40;;;16.78;100.00;95042.01;649122;216;31592;-74
2021/07/26 00:35:51;;;;;;;10.25;9.23;;;15.30;1.40;;;16.83;100.00;95040.08;646925;212;42239;-74
2021/07/26 00:38:33;;;;;;;11.63;8.90;;;15.40;1.40;;;16.80;100.00;95038.39;645794;212;31631;-75
2021/07/26 00:41:16;;;;;;;10.57;9.50;;;15.30;1.40;;;16.72;100.00;95033.23;645589;216;31549;-73
2021/07/26 00:44:01;;;;;;;10.38;8.98;;;15.30;1.40;;;16.76;100.00;95038.39;646673;212;32200;-74
2021/07/26 00:46:42;;;;;;;10.25;8.70;;;15.20;1.40;;;16.51;100.00;95042.70;646745;212;31577;-76
2021/07/26 00:49:24;;;;;;;11.52;9.20;;;15.20;1.40;;;16.58;100.00;95045.05;646836;216;31721;-75
2021/07/26 00:52:06;;;;;;;11.75;8.50;;;15.20;1.40;;;16.53;100.00;95055.14;647721;212;31615;-74
2021/07/26 00:54:57;;;;;;;9.30;8.30;;;15.10;1.40;;;16.44;100.00;95055.13;648237;212;32140;-76
2021/07/26 00:57:39;;;;;;;13.68;8.10;;;15.00;1.40;;;16.50;100.00;95052.59;648056;216;31826;-76
2021/07/26 01:00:23;;;;;;;15.50;8.20;;;15.10;1.40;;;16.46;100.00;95050.94;647175;216;31727;-74
2021/07/26 01:03:04;;;;;;;9.30;8.40;;;15.10;1.40;;;16.52;100.00;95055.22;647737;216;31591;-75
2021/07/26 01:05:46;;;;;;;12.15;8.60;;;15.10;1.40;;;16.62;100.00;95053.51;646460;216;31584;-75
2021/07/26 01:08:31;;;;;;;12.18;8.75;;;15.20;1.40;;;16.76;100.00;95053.38;646049;212;31570;-76
2021/07/26 01:11:19;;;;;;;10.00;8.90;;;15.20;1.40;;;16.86;100.00;95049.98;647335;216;31590;-75
2021/07/26 01:14:00;;;;;;;10.73;8.98;;;15.20;1.40;;;16.95;100.00;95047.88;641675;219;31604;-74
2021/07/26 01:16:42;;;;;;;10.52;8.68;;;15.20;1.40;;;16.96;100.00;95050.19;647096;212;31562;-74
2021/07/26 01:19:24;;;;;;;10.45;8.90;;;15.30;1.40;;;16.93;100.00;95051.78;647674;212;31751;-74
2021/07/26 01:22:05;;;;;;;11.88;8.80;;;15.40;1.40;;;16.89;100.00;95048.75;647455;216;31561;-74
2021/07/26 01:24:47;;;;;;;11.98;9.32;;;15.40;1.40;;;16.93;100.00;95041.19;646971;212;32186;-76
2021/07/26 01:27:31;;;;;;;8.70;7.80;;;15.40;1.40;;;16.97;100.00;95034.49;644903;212;31656;-76
2021/07/26 01:30:19;;;;;;;9.68;8.23;;;15.40;1.40;;;17.02;100.00;95029.77;646552;216;31563;-75
2021/07/26 01:35:57;;;;;;;11.05;8.80;;;15.40;1.40;;;17.08;100.00;95031.78;647573;212;31668;-75
2021/07/26 01:38:45;;;;;;;11.73;8.93;;;15.40;1.40;;;17.13;100.00;95028.81;647257;216;31574;-76
2021/07/26 01:41:35;;;;;;;12.65;8.98;;;15.40;1.40;;;16.98;100.00;95029.89;634798;212;31728;-74
2021/07/26 01:44:11;;;;;;;12.25;8.57;;;15.40;1.40;;;16.99;100.00;95028.73;646066;216;31753;-74
2021/07/26 01:47:11;;;;;;;11.23;8.60;;;15.40;1.40;;;16.98;100.00;95030.96;646929;212;31625;-74
2021/07/26 01:50:06;;;;;;;9.10;8.20;;;15.40;1.40;;;17.01;100.00;95027.02;646624;216;31614;-74
2021/07/26 01:52:47;;;;;;;10.02;8.95;;;15.50;1.40;;;17.11;100.00;95023.14;646128;216;31551;-73
2021/07/26 01:55:29;;;;;;;9.80;8.48;;;15.50;1.40;;;17.05;100.00;95021.96;619657;226;31899;-74
2021/07/26 01:58:11;;;;;;;9.85;8.88;;;15.50;1.40;;;17.07;100.00;95023.52;646153;212;31556;-74
2021/07/26 02:00:52;;;;;;;10.07;8.70;;;15.50;1.40;;;16.96;100.00;95027.84;645282;216;31592;-75
2021/07/26 02:03:34;;;;;;;10.00;8.33;;;15.50;1.40;;;16.86;100.00;95023.86;646674;216;42849;-74
2021/07/26 02:06:16;;;;;;;9.70;8.80;;;15.50;1.40;;;16.88;100.00;95016.84;647391;216;31559;-76
2021/07/26 02:08:58;;;;;;;8.88;8.00;;;15.40;1.40;;;16.87;100.00;95014.58;647913;216;31716;-75
2021/07/26 02:11:39;;;;;;;12.75;8.45;;;15.40;1.40;;;16.93;100.00;95004.38;646645;216;31625;-74
2021/07/26 02:14:27;;;;;;;10.18;8.60;;;15.40;1.40;;;16.89;100.00;95001.55;646777;216;31564;-75
2021/07/26 02:17:09;;;;;;;8.77;7.87;;;15.30;1.40;;;16.91;100.00;94996.42;648423;216;31546;-76
2021/07/26 02:19:56;;;;;;;15.95;9.00;;;15.30;1.40;;;16.98;100.00;95005.90;642229;217;31566;-74
2021/07/26 02:22:38;;;;;;;17.25;8.93;;;15.30;1.40;;;16.89;100.00;95016.87;619957;226;31926;-74
2021/07/26 02:25:23;;;;;;;12.85;8.70;;;15.20;1.40;;;16.96;100.00;95016.98;646915;216;31609;-74
2021/07/26 02:28:05;;;;;;;13.17;8.57;;;15.20;1.40;;;17.01;100.00;95018.75;646690;216;42209;-74
2021/07/26 02:30:46;;;;;;;13.20;8.90;;;15.20;1.40;;;16.88;100.00;95024.69;645217;212;31858;-76
2021/07/26 02:35:51;;;;;;;14.45;8.55;;;15.10;1.40;;;16.83;100.00;95027.35;646791;212;31591;-75
2021/07/26 02:38:33;;;;;;;14.70;8.90;;;15.10;1.40;;;16.82;100.00;95029.20;646066;216;31557;-74
2021/07/26 02:41:14;;;;;;;16.48;8.85;;;15.00;1.40;;;16.82;100.00;95022.50;611988;222;42761;-76
2021/07/26 02:43:58;;;;;;;13.80;8.50;;;15.00;1.40;;;16.87;100.00;95018.52;642354;217;32064;-76
2021/07/26 02:46:40;;;;;;;14.70;8.73;;;15.00;1.40;;;16.95;100.00;95020.69;647689;216;31744;-76
2021/07/26 02:49:24;;;;;;;15.52;9.27;;;15.10;1.40;;;16.95;100.00;95027.88;646082;212;31602;-75
2021/07/26 02:52:06;;;;;;;14.85;9.38;;;15.10;1.40;;;16.91;100.00;95036.43;648285;216;31563;-75
2021/07/26 02:54:47;;;;;;;14.87;9.20;;;15.10;1.40;;;16.93;100.00;95041.55;646497;212;31840;-76
2021/07/26 02:57:31;;;;;;;16.98;8.73;;;15.10;1.40;;;16.95;100.00;95050.19;618411;222;31902;-76
2021/07/26 03:02:06;;;;;;;12.37;8.40;;;15.10;1.40;;;16.91;100.00;95062.60;617198;225;32096;-74
2021/07/26 03:04:48;;;;;;;11.43;8.20;;;15.10;1.40;;;16.80;100.00;95065.83;646501;216;31561;-73
2021/07/26 03:07:30;;;;;;;11.10;7.95;;;15.10;1.40;;;16.75;100.00;95064.84;647141;212;31567;-75
2021/07/26 03:10:12;;;;;;;14.05;8.25;;;15.10;1.40;;;16.55;100.00;95065.93;646823;216;32238;-74
2021/07/26 03:12:54;;;;;;;17.87;8.20;;;15.00;1.40;;;16.43;100.00;95065.75;619721;226;32081;-74
2021/07/26 03:15:36;;;;;;;22.40;9.63;;;14.90;1.40;;;16.34;100.00;95073.45;644861;216;31592;-74
2021/07/26 03:18:21;;;;;;;23.50;8.23;;;14.90;1.40;;;16.24;100.00;95083.52;631583;221;32533;-75
2021/07/26 03:21:02;;;;;;;18.92;8.40;;;14.80;1.40;;;16.33;100.00;95079.94;646268;216;31671;-74
2021/07/26 03:23:44;;;;;;;13.48;7.53;;;14.90;1.40;;;16.43;100.00;95081.55;619328;226;32118;-74
2021/07/26 03:26:29;;;;;;;19.65;8.70;;;14.90;1.40;;;16.59;100.00;95081.25;646511;216;31599;-74
2021/07/26 03:29:10;;;;;;;12.63;7.65;;;15.00;1.40;;;16.67;100.00;95080.56;646407;212;31564;-74
2021/07/26 03:31:52;;;;;;;11.75;7.30;;;14.90;1.40;;;16.67;100.00;95080.65;645074;212;31585;-75
2021/07/26 03:36:02;;;;;;;11.07;7.90;;;14.90;1.40;;;16.65;100.00;95074.91;646195;216;31556;-76
2021/07/26 03:38:43;;;;;;;11.40;7.30;;;14.90;1.40;;;16.65;100.00;95074.41;648856;212;31683;-76
2021/07/26 03:41:31;;;;;;;13.15;8.20;;;14.90;1.40;;;16.65;100.00;95070.88;634930;216;32958;-74
2021/07/26 03:44:13;;;;;;;10.30;7.40;;;14.90;1.40;;;16.64;100.00;95073.09;646512;215;31660;-74
2021/07/26 03:46:54;;;;;;;12.43;7.47;;;14.90;1.40;;;16.66;100.00;95071.88;646046;212;42833;-75
2021/07/26 03:49:36;;;;;;;10.32;7.10;;;14.90;1.40;;;16.66;100.00;95070.77;647926;216;31662;-75
2021/07/26 03:52:18;;;;;;;10.70;7.97;;;14.90;1.40;;;16.65;100.00;95071.17;645935;212;31673;-74
2021/07/26 03:55:02;;;;;;;10.02;7.60;;;14.90;1.40;;;16.62;100.00;95068.50;619474;226;31907;-74
2021/07/26 03:57:50;;;;;;;10.40;7.30;;;15.00;1.40;;;16.65;100.00;95063.66;646590;212;31540;-76
2021/07/26 04:00:38;;;;;;;8.05;7.25;;;15.10;1.40;;;16.74;100.00;95062.25;646657;216;31726;-73
2021/07/26 04:03:30;;;;;;;6.78;5.62;;;15.20;1.40;;;16.76;100.00;95053.63;646190;212;31690;-74
2021/07/26 04:06:12;;;;;;;6.47;5.77;;;15.40;1.40;;;16.95;100.00;95056.14;646928;216;31570;-75
2021/07/26 04:08:57;;;;;;;7.03;6.20;;;15.50;1.40;;;17.15;100.00;95054.61;647824;216;32530;-76
2021/07/26 04:11:47;;;;;;;7.47;6.78;;;15.50;1.40;;;17.25;100.00;95056.38;647820;212;31603;-75
2021/07/26 04:14:29;;;;;;;9.13;6.60;;;15.50;1.40;;;17.20;100.00;95054.66;646229;216;32663;-73
2021/07/26 04:17:08;;;;;;;6.90;5.95;;;15.50;1.40;;;17.16;100.00;95058.31;646821;212;31549;-74
2021/07/26 04:19:50;;;;;;;6.70;6.00;;;15.60;1.40;;;17.14;100.00;95061.27;646259;216;31651;-73
2021/07/26 04:22:31;;;;;;;6.03;5.10;;;15.70;1.40;;;17.32;100.00;95055.30;619431;222;31908;-74
2021/07/26 04:25:17;;;;;;;6.47;5.50;;;15.70;1.40;;;17.20;100.00;95059.55;646346;212;31572;-74
2021/07/26 04:27:58;;;;;;;7.30;5.40;;;15.70;1.40;;;17.17;100.00;95062.71;646854;216;31625;-74
2021/07/26 04:30:39;;;;;;;7.72;5.70;;;15.70;1.40;;;17.20;100.00;95072.13;646890;216;31600;-74
2021/07/26 04:35:51;;;;;;;8.15;5.45;;;15.80;1.40;;;17.02;100.00;95081.95;645806;212;42340;-74
2021/07/26 04:38:33;;;;;;;9.77;5.60;;;15.70;1.40;;;16.87;100.00;95077.92;645913;212;31586;-75
2021/07/26 04:41:14;;;;;;;6.93;5.40;;;15.70;1.40;;;16.86;100.00;95080.38;636078;212;31702;-75
2021/07/26 04:43:59;;;;;;;9.50;6.00;;;15.70;1.40;;;17.00;100.00;95070.73;646272;212;31585;-74
2021/07/26 04:46:41;;;;;;;9.32;5.70;;;15.70;1.40;;;17.07;100.00;95063.63;646517;212;31559;-74
2021/07/26 04:49:23;;;;;;;8.13;5.87;;;15.80;1.40;;;17.10;100.00;95065.55;645496;216;31547;-73
2021/07/26 04:52:05;;;;;;;6.60;6.00;;;15.80;1.40;;;17.13;100.00;95077.95;646363;212;31525;-75
2021/07/26 04:54:46;;;;;;;8.85;6.35;;;15.80;1.40;;;17.05;100.00;95089.59;645369;216;31589;-74
2021/07/26 04:57:28;;;;;;;8.50;5.80;;;15.90;1.40;;;17.19;100.00;95101.05;645450;215;32104;-74
2021/07/26 05:00:10;;;;;;;7.07;5.85;;;15.90;1.40;;;17.26;100.00;95107.22;647927;216;31711;-74
2021/07/26 05:02:52;;;;;;;6.70;5.75;;;16.00;1.40;;;17.24;100.00;95106.89;645692;216;31558;-73
2021/07/26 05:05:34;;;;;;;7.28;6.40;;;16.00;1.40;;;17.41;100.00;95109.27;646943;216;31543;-73
2021/07/26 05:08:16;;;;;;;6.62;6.00;;;16.00;1.40;;;17.34;100.00;95116.54;647053;216;31565;-75
2021/07/26 05:10:57;;;;;;;8.98;5.47;;;16.00;1.40;;;17.32;100.00;95112.10;647657;216;31742;-74
2021/07/26 05:13:42;;;;;;;8.23;6.10;;;16.00;1.40;;;17.33;100.00;95111.56;619133;222;31895;-74
2021/07/26 05:16:26;;;;;;;7.57;6.30;;;16.10;1.40;;;17.26;100.00;95115.52;618956;225;32031;-76
2021/07/26 05:19:14;;;;;;;5.82;5.32;;;16.10;1.40;;;17.30;100.00;95116.21;647604;216;31522;-73
2021/07/26 05:21:55;;;;;;;6.00;5.50;;;16.20;1.40;;;17.34;100.00;95117.77;618192;226;32108;-75
2021/07/26 05:24:37;;;;;;;6.05;5.20;;;16.20;1.40;;;17.37;100.00;95113.66;646687;212;31575;-75
2021/07/26 05:27:19;;;;;;;7.75;5.68;;;16.30;1.40;;;17.47;100.00;95105.64;619413;222;32235;-74
2021/07/26 05:35:51;;;;;;;5.90;5.30;;;16.50;1.40;;;17.74;100.00;95105.95;647179;216;31539;-72
2021/07/26 05:38:32;;;;;;;5.78;5.28;;;16.60;1.40;;;17.91;100.00;95103.93;646059;212;31977;-70
2021/07/26 05:41:14;;;;;;;5.10;4.60;;;16.80;1.40;;;17.97;100.00;95109.92;636687;212;31750;-69
2021/07/26 05:43:56;;;;;;;5.68;5.07;;;16.90;1.40;;;18.00;100.00;95107.73;646301;212;31573;-70
2021/07/26 05:46:38;;;;;;;6.62;4.97;;;16.90;1.40;;;18.39;100.00;95110.83;646141;216;31579;-70
2021/07/26 05:49:19;;;;;;;5.33;4.73;;;17.10;1.40;;;18.36;100.00;95119.41;648101;216;31562;-71
2021/07/26 05:52:01;;;;;;;4.97;4.47;;;17.10;1.40;;;18.51;100.00;95125.10;644856;216;31618;-70
2021/07/26 05:54:43;;;;;;;5.37;4.87;;;17.10;1.40;;;18.55;100.00;95122.73;645908;212;31577;-71
2021/07/26 05:57:32;;;;;;;5.00;4.60;;;17.10;1.40;;;18.28;100.00;95115.73;645269;216;31564;-70
2021/07/26 06:00:13;;;;;;;5.15;4.65;;;17.00;1.40;;;18.31;100.00;95103.91;646557;212;31572;-70
2021/07/26 06:02:52;;;;;;;5.50;5.00;;;17.00;1.40;;;18.59;100.00;95099.16;646628;216;31560;-70
2021/07/26 06:05:34;;;;;;;5.43;4.63;;;17.20;1.40;;;18.75;100.00;95095.05;646264;212;32208;-69
2021/07/26 06:08:16;;;;;;;6.20;4.80;;;17.20;1.40;;;18.88;100.00;95101.05;646330;212;31735;-70
2021/07/26 06:10:57;;;;;;;4.87;4.37;;;17.30;1.40;;;19.18;100.00;95102.89;647265;212;31693;-71
2021/07/26 06:14:59;;;;;;;6.05;4.75;;;17.50;1.40;;;19.25;100.00;95093.64;646147;213;31611;-70
2021/07/26 06:17:41;;;;;;;5.47;4.97;;;17.60;1.40;;;19.71;100.00;95084.00;645991;212;31699;-70
2021/07/26 06:20:22;;;;;;;6.00;5.45;;;17.80;1.40;;;20.18;100.00;95079.89;647433;212;31733;-70
2021/07/26 06:23:04;;;;;;;5.10;4.70;;;18.10;1.40;;;20.09;100.00;95092.30;645659;216;32111;-70
2021/07/26 06:25:46;;;;;;;6.10;5.20;;;18.20;1.40;;;20.14;100.00;95099.17;644503;212;32420;-71
2021/07/26 06:28:28;;;;;;;5.60;5.05;;;18.20;1.40;;;20.18;100.00;95098.17;645032;212;35010;-72
2021/07/26 06:31:12;;;;;;;5.45;4.30;;;18.30;1.40;;;19.89;100.00;95110.95;617203;222;31956;-70
2021/07/26 06:35:51;;;;;;;4.80;4.40;;;17.90;1.40;;;19.49;100.00;95123.92;618868;226;31934;-71
2021/07/26 06:38:32;;;;;;;4.20;3.80;;;17.90;1.40;;;19.59;100.00;95125.02;645623;212;42580;-71
2021/07/26 06:41:14;;;;;;;4.87;4.47;;;18.00;1.40;;;19.93;100.00;95122.11;636661;212;31782;-71
2021/07/26 06:43:56;;;;;;;5.53;4.30;;;18.20;1.40;;;20.46;100.00;95118.73;646539;212;31586;-72
2021/07/26 06:46:40;;;;;;;5.00;4.60;;;18.50;1.40;;;21.04;100.00;95116.77;645902;212;31762;-71
2021/07/26 06:49:22;;;;;;;5.00;4.60;;;18.90;1.40;;;21.27;100.00;95128.59;646705;212;31581;-71
2021/07/26 06:52:04;;;;;;;4.93;4.40;;;19.00;1.40;;;21.17;100.00;95135.27;645912;216;31553;-71
2021/07/26 06:54:46;;;;;;;4.70;4.10;;;18.90;1.40;;;-143.44;100.00;122422.95;645582;212;31657;-71
2021/07/26 06:57:27;;;;;;;4.70;4.30;;;19.00;1.40;;;;;;645533;216;32432;-71
2021/07/26 07:01:54;;;;;;;4.62;4.15;;;18.80;1.40;;;;;;646097;212;31574;-71
2021/07/26 07:04:35;;;;;;;4.70;4.20;;;18.70;1.40;;;;;;646566;212;31557;-71
2021/07/26 07:07:19;;;;;;;3.92;3.62;;;19.00;1.40;;;;;;644467;212;33299;-71
2021/07/26 07:10:00;;;;;;;4.68;3.67;;;19.30;1.40;;;;;;618945;226;31891;-71
2021/07/26 07:12:41;;;;;;;5.87;4.00;;;19.40;1.40;;;;;;620171;222;32224;-71
2021/07/26 07:15:23;;;;;;;5.20;4.50;;;19.30;1.40;;;;;;644710;212;42396;-71
2021/07/26 07:18:03;;;;;;;4.20;3.80;;;19.40;1.40;;;;;;646180;212;42512;-72
2021/07/26 07:20:44;;;;;;;4.45;4.05;;;19.70;1.40;;;;;;648379;216;31529;-72
2021/07/26 07:23:25;;;;;;;5.57;4.10;;;19.90;1.40;;;;;;646925;216;31607;-71
2021/07/26 07:26:06;;;;;;;5.32;4.20;;;19.80;1.40;;;;;;644899;212;31573;-72
2021/07/26 07:28:48;;;;;;;4.45;4.05;;;19.90;1.40;;;;;;645886;212;31571;-71
2021/07/26 07:31:33;;;;;;;4.45;4.15;;;20.00;1.40;;;;;;645923;216;31663;-72
2021/07/26 07:35:51;;;;;;;4.03;3.62;;;19.70;1.40;;;22.11;90.43;95133.78;619606;222;31931;-71
2021/07/26 07:38:35;;;;;;;4.20;3.80;;;19.90;1.40;;;21.95;91.83;95132.78;646361;216;32274;-71
2021/07/26 07:41:17;;;;;;;4.10;3.50;;;19.80;1.40;;;22.46;88.00;95127.78;635327;212;31881;-71
2021/07/26 07:43:59;;;;;;;4.82;3.75;;;20.10;1.40;;;22.91;86.39;95129.67;647495;216;31899;-72
2021/07/26 07:46:40;;;;;;;5.80;4.30;;;20.50;1.40;;;23.60;85.53;95140.50;618482;226;31941;-71
2021/07/26 07:49:22;;;;;;;5.25;3.80;;;21.00;1.40;;;23.77;83.93;95139.81;648670;216;31581;-73
2021/07/26 07:52:04;;;;;;;3.95;3.35;;;21.20;1.40;;;24.12;84.55;95133.47;645789;212;31615;-72
2021/07/26 07:54:49;;;;;;;4.43;3.62;;;21.30;1.40;;;24.03;82.34;95129.29;647213;212;31754;-71
2021/07/26 07:57:32;;;;;;;3.80;3.40;;;21.20;1.40;;;24.39;83.41;95126.50;648022;212;31568;-72
2021/07/26 08:00:13;;;;;;;3.97;3.40;;;21.50;1.40;;;24.36;77.95;95124.49;619384;226;31923;-71
2021/07/26 08:02:55;;;;;;;4.10;3.40;;;21.40;1.40;;;24.16;78.03;95125.13;619755;222;32234;-71
2021/07/26 08:05:36;;;;;;;4.85;3.60;;;21.30;1.40;;;23.94;78.80;95121.52;647662;216;31696;-72
2021/07/26 08:08:21;;;;;;;3.83;3.53;;;21.20;1.40;;;24.49;81.56;95121.56;646765;216;31659;-71
2021/07/26 08:11:05;;;;;;;3.80;3.30;;;21.30;1.40;;;24.27;76.24;95110.61;647001;212;42194;-72
2021/07/26 08:13:44;;;;;;;4.15;3.30;;;21.60;1.40;;;25.08;77.22;95099.33;647460;216;31562;-73
2021/07/26 08:16:29;;;;;;;3.58;3.28;;;21.80;1.40;;;25.49;73.30;95097.34;648003;216;31729;-72
2021/07/26 08:19:10;;;;;;;3.50;3.20;;;22.00;1.40;;;25.42;73.08;95097.80;646983;216;31575;-71
2021/07/26 08:21:52;;;;;;;4.57;3.90;;;22.10;1.40;;;25.45;72.55;95093.98;622356;225;31908;-73
2021/07/26 08:24:34;;;;;;;3.75;3.45;;;22.00;1.40;;;25.04;71.59;95096.32;648422;212;31569;-72
2021/07/26 08:27:15;;;;;;;2.87;2.67;;;22.20;1.40;;;25.30;69.08;95105.08;646684;212;31599;-72
2021/07/26 08:29:57;;;;;;;2.80;2.60;;;22.10;1.40;;;25.38;69.74;95113.19;647235;216;32113;-71
2021/07/26 08:32:39;;;;;;;3.10;2.80;;;22.30;1.40;;;25.33;72.74;95116.48;619705;226;32098;-72
2021/07/26 08:38:23;;;;;;;2.80;2.60;;;22.70;1.40;;;25.03;70.22;95122.59;645289;212;31580;-72
2021/07/26 08:41:05;;;;;;;3.45;2.80;;;22.20;1.40;;;25.39;70.60;95122.25;637223;212;31724;-72
2021/07/26 08:43:47;;;;;;;3.50;3.20;;;22.10;1.40;;;25.09;73.76;95116.54;617868;226;32051;-72
2021/07/26 08:46:28;;;;;;;3.15;2.85;;;21.90;1.40;;;24.43;74.29;95126.09;649139;216;31599;-72
2021/07/26 08:49:10;;;;;;;3.58;3.28;;;21.60;1.40;;;24.50;75.62;95130.08;648063;212;31586;-72
2021/07/26 08:51:52;;;;;;;4.40;3.55;;;21.80;1.40;;;24.13;73.86;95135.80;648384;216;42372;-71
2021/07/26 08:54:34;;;;;;;3.70;3.40;;;21.80;1.40;;;24.40;76.40;95133.42;647794;216;42448;-71
2021/07/26 08:57:15;;;;;;;3.50;3.20;;;22.10;1.40;;;24.26;74.66;95130.09;646700;212;31661;-72
2021/07/26 08:59:57;;;;;;;3.80;3.47;;;22.10;1.40;;;24.32;77.69;95136.15;648177;212;42360;-71
2021/07/26 09:02:39;;;;;;;3.53;3.22;;;22.10;1.40;;;24.30;78.97;95130.25;648426;212;32397;-71
2021/07/26 09:05:20;;;;;;;4.00;3.70;;;22.50;1.40;;;25.08;72.83;95127.19;645599;212;34247;-71
2021/07/26 09:08:02;;;;;;;3.60;3.30;;;22.90;1.40;;;25.06;73.10;95132.48;646592;216;31598;-72
2021/07/26 09:10:44;;;;;;;3.78;3.58;;;22.90;1.40;;;25.05;71.75;95136.05;618228;226;31907;-73
2021/07/26 09:13:37;;;;;;;3.50;3.20;;;22.90;1.40;;;25.21;70.63;95130.31;646299;212;42378;-71
2021/07/26 09:16:21;;;;;;;3.67;3.37;;;23.20;1.40;;;24.83;70.52;95129.86;646184;212;31740;-72
2021/07/26 09:19:03;;;;;;;3.65;3.15;;;23.00;1.40;;;25.68;69.30;95124.83;645139;212;32221;-72
2021/07/26 09:21:50;;;;;;;3.30;3.10;;;23.50;1.40;;;25.73;68.74;95125.36;647025;212;31563;-72
2021/07/26 09:24:32;;;;;;;3.62;3.33;;;23.70;1.40;;;26.49;65.81;95126.20;645940;216;42280;-71
2021/07/26 09:27:14;;;;;;;3.33;3.03;;;25.00;1.40;;;27.42;62.23;95125.41;647058;212;31683;-71
2021/07/26 09:29:55;;;;;;;3.55;3.25;;;27.10;1.40;;;28.59;58.48;95133.88;645577;216;42514;-72
2021/07/26 09:32:38;;;;;;;3.25;3.00;;;28.30;1.40;;;29.72;55.52;95128.41;648412;216;31668;-73
2021/07/26 09:36:07;;;;;;;3.28;2.97;;;28.80;1.40;;;31.66;53.61;95126.47;646702;216;34577;-72
2021/07/26 09:38:56;;;;;;;3.15;2.95;;;29.20;1.40;;;30.98;50.23;95128.03;646229;216;31593;-72
2021/07/26 09:41:43;;;;;;;3.22;2.90;;;28.70;1.40;;;32.26;51.44;95132.30;645939;216;31562;-73
2021/07/26 09:44:27;;;;;;;4.12;3.72;;;28.50;1.40;;;31.74;48.93;95131.59;645162;216;31723;-71
2021/07/26 09:47:18;;;;;;;3.17;2.97;;;28.50;1.40;;;33.25;46.74;95125.88;618382;222;32188;-72
2021/07/26 09:50:05;;;;;;;3.00;2.80;;;29.40;1.40;;;31.01;46.83;95126.69;647194;216;31581;-73
2021/07/26 09:52:44;;;;;;;3.20;3.00;;;28.50;1.40;;;34.34;45.37;95118.59;646377;212;32248;-72
2021/07/26 09:55:30;;;;;;;3.35;3.15;;;30.80;1.40;;;34.90;43.96;95118.92;642364;215;32299;-72
2021/07/26 09:58:12;;;;;;;3.23;2.93;;;30.40;1.40;;;33.56;44.90;95127.67;646363;216;31629;-72
2021/07/26 10:00:54;;;;;;;3.50;3.20;;;29.70;1.40;;;34.23;46.23;95126.09;646368;212;31595;-73
2021/07/26 10:03:39;;;;;;;3.83;3.53;;;30.30;1.40;;;35.74;40.45;95127.72;646045;216;32551;-72
2021/07/26 10:06:20;;;;;;;3.40;3.10;;;30.00;1.40;;;35.19;39.41;95125.67;618679;226;32855;-70
2021/07/26 10:09:02;;;;;;;3.90;3.60;;;29.90;1.40;;;35.70;39.19;95124.79;617630;226;32121;-69
2021/07/26 10:11:44;;;;;;;3.12;2.83;;;30.10;1.40;;;36.49;39.17;95122.44;646728;212;31644;-70
2021/07/26 10:14:25;;;;;;;3.50;3.20;;;30.60;1.40;;;35.45;38.42;95118.86;647345;216;31588;-70
2021/07/26 10:17:07;;;;;;;3.28;2.97;;;30.60;1.40;;;37.73;38.52;95120.07;645520;216;31611;-70
2021/07/26 10:19:49;;;;;;;3.30;3.10;;;31.30;1.40;;;35.29;40.71;95123.06;645908;216;31830;-69
2021/07/26 10:22:30;;;;;;;2.90;2.70;;;30.10;1.40;;;37.76;36.98;95125.09;619214;226;31955;-70
2021/07/26 10:25:13;;;;;;;3.65;3.10;;;30.00;1.40;;;36.81;39.62;95123.19;645566;212;31672;-69
2021/07/26 10:27:55;;;;;;;4.37;3.97;;;31.00;1.40;;;35.87;36.67;95116.48;646368;216;31694;-70
2021/07/26 10:30:37;;;;;;;3.35;3.12;;;30.00;1.40;;;37.19;39.82;95114.09;619048;222;32103;-71
2021/07/26 10:44:35;;;;;;;4.50;3.30;;;31.20;1.40;;;;;;646573;212;32757;-71
2021/07/26 10:47:16;;;;;;;3.35;3.05;;;31.30;1.40;;;;;;617650;223;33043;-71
2021/07/26 10:50:09;;;;;;;3.50;3.20;;;32.00;1.40;;;;;;646244;212;31632;-71
2021/07/26 10:52:49;;;;;;;4.07;3.67;;;30.70;1.40;;;;;;647862;216;31603;-71
2021/07/26 10:55:42;;;;;;;3.70;3.40;;;30.60;1.40;;;;;;646526;212;31587;-71
2021/07/26 10:58:35;;;;;;;3.93;3.63;;;31.50;1.40;;;;;;646204;212;31662;-72
2021/07/26 11:01:34;;;;;;;4.10;3.30;;;28.40;1.40;;;;;;647529;216;31609;-71
2021/07/26 11:04:34;;;;;;;3.30;3.10;;;30.90;1.40;;;;;;646389;216;31595;-71
2021/07/26 11:07:15;;;;;;;3.53;3.22;;;31.60;1.40;;;;;;646918;212;31861;-71
2021/07/26 11:09:56;;;;;;;3.35;3.15;;;31.00;1.40;;;;;;645817;216;31762;-71
2021/07/26 11:12:58;;;;;;;3.60;3.30;;;30.30;1.40;;;;;;646605;212;31596;-70
2021/07/26 11:15:51;;;;;;;3.83;2.90;;;31.30;1.40;;;;;;620464;226;31927;-71
2021/07/26 11:18:38;;;;;;;3.30;3.10;;;31.70;1.40;;;;;;646881;216;31630;-71
2021/07/26 11:21:21;;;;;;;3.50;3.20;;;31.50;1.40;;;;;;646687;216;31609;-74
2021/07/26 11:24:01;;;;;;;3.15;2.85;;;31.60;1.40;;;;;;646627;212;31560;-74
2021/07/26 11:26:42;;;;;;;3.22;3.03;;;31.00;1.40;;;;;;646343;216;31706;-73
2021/07/26 11:29:23;;;;;;;3.35;3.05;;;31.50;1.40;;;;;;645769;212;31757;-74
2021/07/26 11:32:04;;;;;;;2.95;2.65;;;32.10;1.40;;;;;;646516;212;32016;-73
2021/07/26 11:38:27;;;;;;;3.97;3.67;;;31.40;1.40;;;39.98;31.87;95082.65;646423;212;42188;-73
2021/07/26 11:41:17;;;;;;;3.92;3.45;;;31.00;1.40;;;40.80;30.39;95078.64;647932;216;31577;-74
2021/07/26 11:43:58;;;;;;;3.65;3.35;;;31.80;1.40;;;39.48;31.46;95078.45;646060;216;31600;-74
2021/07/26 11:46:39;;;;;;;3.97;3.67;;;31.40;1.40;;;38.46;32.07;95079.72;646805;216;31599;-73
2021/07/26 11:49:21;;;;;;;3.50;3.20;;;30.50;1.40;;;39.19;30.15;95074.45;647250;213;31597;-74
2021/07/26 11:52:06;;;;;;;3.90;3.60;;;30.80;1.40;;;40.24;30.04;95072.37;646381;216;31702;-73
2021/07/26 11:54:47;;;;;;;4.05;3.20;;;31.90;1.40;;;40.90;30.30;95062.88;646740;216;31827;-73
2021/07/26 11:57:29;;;;;;;2.80;2.60;;;32.20;1.40;;;41.13;29.24;95056.20;647116;212;31639;-75
2021/07/26 12:00:14;;;;;;;4.15;2.80;;;32.10;1.40;;;42.29;29.90;95053.70;646078;213;31903;-74
2021/07/26 12:02:56;;;;;;;3.60;3.10;;;32.90;1.40;;;38.23;31.33;95052.34;647450;212;33099;-74
2021/07/26 12:05:37;;;;;;;3.42;3.12;;;30.80;1.40;;;35.97;33.23;95052.73;645722;216;31647;-73
2021/07/26 12:08:20;;;;;;;3.20;2.90;;;29.70;1.40;;;35.44;34.94;95045.89;646674;216;31711;-74
2021/07/26 12:11:16;;;;;;;3.20;2.90;;;29.30;1.40;;;33.85;35.98;95046.77;647280;216;31659;-74
2021/07/26 12:14:03;;;;;;;3.60;3.30;;;28.20;1.40;;;34.20;36.29;95040.99;619017;223;32095;-75
2021/07/26 12:16:58;;;;;;;3.17;2.90;;;28.60;1.40;;;36.45;34.69;95034.62;646562;216;31597;-73
2021/07/26 12:19:41;;;;;;;3.45;3.17;;;29.80;1.40;;;37.10;31.54;95040.61;646709;216;42609;-74
2021/07/26 12:22:23;;;;;;;4.57;3.12;;;30.40;1.40;;;37.93;30.48;95038.15;645639;216;32280;-74
2021/07/26 12:25:05;;;;;;;3.55;2.80;;;30.90;1.40;;;40.31;29.70;95031.44;647033;216;32225;-74
2021/07/26 12:27:55;;;;;;;3.40;3.10;;;31.80;1.40;;;39.80;31.67;95029.58;647523;216;31658;-74